Time;durP1;ratioP1;P1;durP2;ratioP2;P2;SDS_P1;SDS_P2;PMS_P1;PMS_P2;Temp;Humidity;BMP_temperature;BMP_pressure;BME280_temperature;BME280_humidity;BME280_pressure;Samples;Min_cycle;Max_cycle;Signal;HPM_P1;HPM_P2
2022/01/11 00:00:43;;;;;;;22.50;7.00;;;-1.60;99.90;;;;;;4931884;28;1297120;-75
2022/01/11 00:03:15;;;;;;;29.25;7.13;;;-1.50;99.90;;;;;;4991341;28;20061;-75
2022/01/11 00:06:15;;;;;;;24.55;6.72;;;-1.30;99.90;;;;;;4981230;28;20046;-76
2022/01/11 00:08:44;;;;;;;26.38;7.60;;;-1.10;99.90;;;;;;4956258;28;20077;-76
2022/01/11 00:11:11;;;;;;;24.92;8.18;;;-1.40;99.90;;;;;;4975594;28;20057;-75
2022/01/11 00:13:40;;;;;;;26.45;8.10;;;-1.30;99.90;;;;;;4990407;28;20551;-77
2022/01/11 00:16:09;;;;;;;25.50;8.15;;;-1.10;99.90;;;;;;4972662;28;20243;-76
2022/01/11 00:18:36;;;;;;;30.50;9.45;;;-1.10;99.90;;;;;;4987568;28;20140;-75
2022/01/11 00:21:03;;;;;;;31.45;9.10;;;-1.00;99.90;;;;;;4956036;28;20318;-77
2022/01/11 00:25:58;;;;;;;25.58;8.85;;;-1.10;99.90;;;;;;4973282;28;20046;-76
2022/01/11 00:28:26;;;;;;;23.08;8.65;;;-1.40;99.90;;;;;;4956307;28;20050;-76
2022/01/11 00:31:05;;;;;;;36.03;10.38;;;-1.50;99.90;;;;;;4953032;28;20635;-75
2022/01/11 00:33:38;;;;;;;32.75;10.02;;;-1.30;99.90;;;;;;4951948;28;20059;-76
2022/01/11 00:36:07;;;;;;;29.38;9.70;;;-1.20;99.90;;;;;;4953330;28;20082;-76
2022/01/11 00:38:38;;;;;;;35.33;11.20;;;-1.30;99.90;;;;;;4960630;28;20066;-76
2022/01/11 00:41:07;;;;;;;39.35;12.85;;;-1.50;99.90;;;;;;4956744;28;20058;-76
2022/01/11 00:43:35;;;;;;;33.33;11.88;;;-1.40;99.90;;;;;;4969004;28;20408;-75
2022/01/11 00:46:03;;;;;;;39.33;13.10;;;-1.50;99.90;;;;;;4971748;28;20054;-76
2022/01/11 00:48:30;;;;;;;41.50;13.50;;;-1.70;99.90;;;;;;4971824;28;20144;-76
2022/01/11 00:50:57;;;;;;;40.95;13.45;;;-1.80;99.90;;;;;;4974569;28;20046;-76
2022/01/11 00:53:24;;;;;;;48.35;14.93;;;-1.90;99.90;;;;;;4988224;28;20085;-75
2022/01/11 00:55:51;;;;;;;49.40;14.85;;;-1.90;99.90;;;;;;4960821;28;20054;-75
2022/01/11 00:58:19;;;;;;;49.03;15.18;;;-1.90;99.90;;;;;;4988353;28;20284;-75
2022/01/11 01:00:47;;;;;;;58.75;17.02;;;-1.80;99.90;;;;;;4985928;28;20054;-76
2022/01/11 01:03:14;;;;;;;63.88;18.40;;;-1.90;99.90;;;;;;4972326;28;20108;-75
2022/01/11 01:05:42;;;;;;;59.35;16.48;;;-1.70;99.90;;;;;;4971786;28;20100;-75
2022/01/11 01:08:09;;;;;;;63.80;18.50;;;-1.80;99.90;;;;;;4972555;28;20243;-76
2022/01/11 01:10:45;;;;;;;61.58;19.58;;;-1.80;99.90;;;;;;4970601;28;20144;-76
2022/01/11 01:13:20;;;;;;;63.75;19.23;;;-1.80;99.90;;;;;;4990150;28;20050;-76
2022/01/11 01:15:54;;;;;;;67.35;20.58;;;-1.90;99.90;;;;;;4988947;28;20076;-76
2022/01/11 01:18:38;;;;;;;63.45;20.23;;;-2.00;99.90;;;;;;4987382;28;20066;-75
2022/01/11 01:21:05;;;;;;;71.05;20.88;;;-2.00;99.90;;;;;;4971942;28;20324;-75
2022/01/11 01:23:33;;;;;;;63.65;21.35;;;-1.90;99.90;;;;;;4972615;28;20046;-75
2022/01/11 01:26:01;;;;;;;71.05;20.67;;;-1.80;99.90;;;;;;4972601;28;20054;-75
2022/01/11 01:28:28;;;;;;;62.47;21.45;;;-1.80;99.90;;;;;;4974771;28;20586;-75
2022/01/11 01:31:00;;;;;;;81.53;22.23;;;-1.60;99.90;;;;;;4974488;28;20601;-75
2022/01/11 01:33:29;;;;;;;68.45;20.88;;;-1.50;99.90;;;;;;4973741;28;20062;-75
2022/01/11 01:36:01;;;;;;;59.88;20.85;;;-1.40;99.90;;;;;;4977753;28;20050;-75
2022/01/11 01:38:30;;;;;;;73.07;20.73;;;-1.40;99.90;;;;;;4977086;28;20141;-74
2022/01/11 01:41:04;;;;;;;65.40;20.92;;;-1.40;99.90;;;;;;4960239;28;20034;-75
2022/01/11 01:43:31;;;;;;;67.93;20.02;;;-1.60;99.90;;;;;;4992626;28;20065;-75
2022/01/11 01:46:00;;;;;;;70.22;20.60;;;-1.80;99.90;;;;;;4975176;28;20050;-75
2022/01/11 01:48:28;;;;;;;62.45;18.77;;;-1.80;99.90;;;;;;4991819;28;20145;-76
2022/01/11 01:50:56;;;;;;;59.70;20.70;;;-1.80;99.90;;;;;;4977093;28;20676;-75
2022/01/11 01:53:24;;;;;;;68.50;21.13;;;-1.80;99.90;;;;;;4960587;28;20527;-74
2022/01/11 01:55:51;;;;;;;66.55;20.00;;;-1.80;99.90;;;;;;4960229;28;20042;-75
2022/01/11 01:58:19;;;;;;;52.33;19.67;;;-1.80;99.90;;;;;;4992864;28;20395;-78
2022/01/11 02:00:51;;;;;;;56.53;16.42;;;-1.90;99.90;;;;;;4966532;28;20077;-77
2022/01/11 02:03:25;;;;;;;52.40;16.95;;;-2.00;99.90;;;;;;4976087;28;20050;-77
2022/01/11 02:05:54;;;;;;;42.13;15.93;;;-2.10;99.90;;;;;;4992592;28;21008;-74
2022/01/11 02:08:22;;;;;;;39.42;15.52;;;-2.10;99.90;;;;;;4991698;28;20051;-75
2022/01/11 02:10:50;;;;;;;44.92;16.67;;;-2.30;99.90;;;;;;4975131;28;20259;-75
2022/01/11 02:13:17;;;;;;;59.40;21.23;;;-2.30;99.90;;;;;;4993100;28;20050;-75
2022/01/11 02:15:45;;;;;;;54.33;17.33;;;-2.30;99.90;;;;;;4975880;28;20073;-75
2022/01/11 02:18:20;;;;;;;56.03;17.15;;;-2.40;99.90;;;;;;4976812;28;20548;-75
2022/01/11 02:20:50;;;;;;;47.47;16.05;;;-2.40;99.90;;;;;;4976549;28;20050;-74
2022/01/11 02:23:25;;;;;;;43.08;15.77;;;-2.40;99.90;;;;;;4961599;28;20038;-74
2022/01/11 02:25:52;;;;;;;47.53;16.65;;;-2.40;99.90;;;;;;4960231;28;20042;-73
2022/01/11 02:28:23;;;;;;;55.15;17.13;;;-2.30;99.90;;;;;;4960642;28;20050;-73
2022/01/11 02:30:51;;;;;;;48.83;17.77;;;-2.40;99.90;;;;;;4974767;28;20043;-73
2022/01/11 02:33:52;;;;;;;40.58;16.42;;;-2.40;99.90;;;;;;4975843;28;20082;-73
2022/01/11 02:36:33;;;;;;;37.55;14.75;;;-2.40;99.90;;;;;;4973187;28;20045;-73
2022/01/11 02:39:19;;;;;;;46.67;15.45;;;-2.40;99.90;;;;;;4976507;28;20160;-73
2022/01/11 02:41:55;;;;;;;36.25;12.77;;;-2.40;99.90;;;;;;4992542;28;20047;-73
2022/01/11 02:44:27;;;;;;;35.30;12.40;;;-2.50;99.90;;;;;;4941988;28;20241;-73
2022/01/11 02:46:54;;;;;;;29.10;14.07;;;-2.50;99.90;;;;;;4966596;28;20053;-73
2022/01/11 02:49:24;;;;;;;37.58;13.05;;;-2.40;99.90;;;;;;4989342;28;20055;-73
2022/01/11 02:51:58;;;;;;;34.90;11.65;;;-2.10;99.90;;;;;;4967052;28;20043;-73
2022/01/11 02:54:25;;;;;;;33.42;12.20;;;-2.10;99.90;;;;;;4969325;28;20051;-74
2022/01/11 02:57:03;;;;;;;35.65;9.88;;;-2.10;99.90;;;;;;4986757;28;20042;-74
2022/01/11 02:59:30;;;;;;;28.38;10.65;;;-1.90;99.90;;;;;;4976614;28;20050;-75
2022/01/11 03:01:57;;;;;;;22.13;7.20;;;-1.90;99.90;;;;;;4972227;28;20257;-75
2022/01/11 03:04:28;;;;;;;31.65;8.38;;;-1.90;99.90;;;;;;4975671;28;20264;-73
2022/01/11 03:06:57;;;;;;;30.00;8.38;;;-2.10;99.90;;;;;;4988189;28;20043;-73
2022/01/11 03:09:29;;;;;;;22.52;7.85;;;-2.20;99.90;;;;;;4971288;28;20485;-73
2022/01/11 03:11:56;;;;;;;20.13;7.40;;;-2.40;99.90;;;;;;4955455;28;20200;-72
2022/01/11 03:14:24;;;;;;;25.77;6.60;;;-2.50;99.90;;;;;;4955262;28;20069;-73
2022/01/11 03:16:52;;;;;;;13.80;6.10;;;-2.50;99.90;;;;;;4966903;28;20105;-73
2022/01/11 03:19:19;;;;;;;22.30;7.53;;;-2.50;99.90;;;;;;4971465;28;20046;-72
2022/01/11 03:21:46;;;;;;;20.63;6.40;;;-2.60;99.90;;;;;;4970336;28;20158;-72
2022/01/11 03:24:15;;;;;;;14.95;4.57;;;-2.60;99.90;;;;;;4981568;28;20053;-72
2022/01/11 03:26:42;;;;;;;13.25;4.85;;;-2.50;99.90;;;;;;4974070;28;20042;-72
2022/01/11 03:29:09;;;;;;;13.68;4.22;;;-2.50;99.90;;;;;;4974518;28;20132;-73
2022/01/11 03:31:36;;;;;;;14.50;4.10;;;-2.60;99.90;;;;;;4977063;28;20152;-72
2022/01/11 03:34:03;;;;;;;7.97;4.03;;;-2.60;99.90;;;;;;4977611;28;20549;-72
2022/01/11 03:36:30;;;;;;;9.32;4.13;;;-2.70;99.90;;;;;;4973979;28;20093;-72
2022/01/11 03:38:56;;;;;;;13.93;3.85;;;-2.50;99.90;;;;;;4975997;28;20052;-72
2022/01/11 03:41:25;;;;;;;11.50;4.35;;;-2.50;99.90;;;;;;4974695;28;20041;-73
2022/01/11 03:43:52;;;;;;;12.00;4.05;;;-2.20;99.90;;;;;;4971882;28;20077;-73
2022/01/11 03:46:21;;;;;;;9.05;3.63;;;-2.10;99.90;;;;;;4956358;28;20719;-73
2022/01/11 03:48:48;;;;;;;12.30;4.53;;;-2.10;99.90;;;;;;4974129;28;20062;-72
2022/01/11 03:51:15;;;;;;;12.13;3.30;;;-2.40;99.90;;;;;;4972256;28;20141;-72
2022/01/11 03:54:01;;;;;;;;;;;-2.40;99.90;;;;;;4974087;28;20126;-72
2022/01/11 03:56:29;;;;;;;9.25;3.47;;;-2.40;99.90;;;;;;4971339;28;19926;-72
2022/01/11 03:59:06;;;;;;;5.55;2.70;;;-2.50;99.90;;;;;;4973529;28;20042;-72
2022/01/11 04:01:34;;;;;;;7.07;3.20;;;-2.50;99.90;;;;;;4981499;28;20386;-72
2022/01/11 04:04:02;;;;;;;8.25;4.03;;;-2.60;99.90;;;;;;4972738;28;20053;-72
2022/01/11 04:06:29;;;;;;;9.45;3.20;;;-2.60;99.90;;;;;;4985658;28;20749;-72
2022/01/11 04:08:56;;;;;;;9.88;3.40;;;-2.70;99.90;;;;;;4974733;28;20058;-72
2022/01/11 04:11:23;;;;;;;14.70;3.78;;;-2.70;99.90;;;;;;4974348;28;20050;-72
2022/01/11 04:13:52;;;;;;;7.18;3.15;;;-2.60;99.90;;;;;;4974618;28;20061;-72
2022/01/11 04:16:19;;;;;;;15.45;3.65;;;-2.60;99.90;;;;;;4957571;28;20061;-72
2022/01/11 04:18:46;;;;;;;8.77;3.60;;;-2.60;99.90;;;;;;4989012;28;20346;-72
2022/01/11 04:21:13;;;;;;;8.80;3.20;;;-2.40;99.90;;;;;;4956740;28;20112;-72
2022/01/11 04:23:43;;;;;;;10.70;2.83;;;-2.40;99.90;;;;;;4957344;28;20069;-72
2022/01/11 04:26:10;;;;;;;11.95;3.78;;;-2.30;99.90;;;;;;4974569;28;20201;-72
2022/01/11 04:28:38;;;;;;;11.48;3.65;;;-2.60;99.90;;;;;;4972307;28;20081;-72
2022/01/11 04:31:07;;;;;;;10.90;3.20;;;-2.50;99.90;;;;;;4966139;28;20101;-74
2022/01/11 04:33:35;;;;;;;6.80;2.75;;;-2.40;99.90;;;;;;4973549;28;20047;-74
2022/01/11 04:36:03;;;;;;;9.02;3.03;;;-2.30;99.90;;;;;;4952386;28;20721;-74
2022/01/11 04:38:32;;;;;;;7.82;3.28;;;-2.50;99.90;;;;;;4937288;28;20075;-74
2022/01/11 04:40:59;;;;;;;8.23;2.90;;;-2.60;99.90;;;;;;4952461;28;20142;-72
2022/01/11 04:43:32;;;;;;;8.18;2.72;;;-2.70;99.90;;;;;;4965349;28;20053;-72
2022/01/11 04:45:59;;;;;;;10.10;2.67;;;-2.80;99.90;;;;;;4966424;28;20214;-72
2022/01/11 04:48:28;;;;;;;6.93;2.75;;;-2.80;99.90;;;;;;4949024;28;20078;-72
2022/01/11 04:50:55;;;;;;;7.57;3.25;;;-2.80;99.90;;;;;;4937514;28;20063;-72
2022/01/11 04:53:22;;;;;;;12.32;3.75;;;-2.60;99.90;;;;;;4966852;28;20383;-72
2022/01/11 04:55:49;;;;;;;6.53;3.40;;;-2.80;99.90;;;;;;4965387;28;20506;-72
2022/01/11 04:58:17;;;;;;;7.72;3.15;;;-2.90;99.90;;;;;;4966332;28;20062;-73
2022/01/11 05:00:44;;;;;;;11.20;3.70;;;-2.70;99.90;;;;;;4966227;28;20057;-74
2022/01/11 05:03:11;;;;;;;10.45;3.70;;;-2.60;99.90;;;;;;4984470;28;20344;-73
2022/01/11 05:05:40;;;;;;;11.52;3.63;;;-2.70;99.90;;;;;;4956256;28;20046;-72
2022/01/11 05:08:07;;;;;;;10.57;4.30;;;-2.70;99.90;;;;;;4988298;28;20054;-72
2022/01/11 05:10:34;;;;;;;16.08;4.55;;;-2.60;99.90;;;;;;4987600;28;20046;-71
2022/01/11 05:13:01;;;;;;;15.98;4.95;;;-2.50;99.90;;;;;;4972174;28;20455;-71
2022/01/11 05:15:28;;;;;;;14.75;5.25;;;-2.50;99.90;;;;;;4986893;28;20133;-71
2022/01/11 05:17:56;;;;;;;11.05;3.85;;;-2.50;99.90;;;;;;4971655;28;20511;-71
2022/01/11 05:20:25;;;;;;;12.07;4.20;;;-2.50;99.90;;;;;;4952748;28;20077;-71
2022/01/11 05:22:51;;;;;;;11.15;3.92;;;-2.60;99.90;;;;;;4972286;28;20057;-71
2022/01/11 05:25:20;;;;;;;13.35;4.00;;;-2.80;99.90;;;;;;4971507;28;20057;-71
2022/01/11 05:27:47;;;;;;;8.38;3.95;;;-2.80;99.90;;;;;;4954741;28;20053;-71
2022/01/11 05:30:18;;;;;;;10.05;4.43;;;-2.90;99.90;;;;;;4973437;28;20050;-71
2022/01/11 05:32:48;;;;;;;13.07;3.45;;;-2.70;99.90;;;;;;4974113;28;20046;-71
2022/01/11 05:35:16;;;;;;;9.93;3.47;;;-2.60;99.90;;;;;;4952718;28;20050;-71
2022/01/11 05:37:43;;;;;;;7.65;3.55;;;-2.60;99.90;;;;;;4951877;28;20055;-71
2022/01/11 05:40:11;;;;;;;11.05;3.60;;;-2.50;99.90;;;;;;4967980;28;20148;-71
2022/01/11 05:42:40;;;;;;;9.80;3.30;;;-2.60;99.90;;;;;;4988304;28;20065;-71
2022/01/11 05:45:09;;;;;;;15.55;4.50;;;-2.60;99.90;;;;;;4972933;28;20056;-71
2022/01/11 05:47:36;;;;;;;10.73;4.32;;;-2.60;99.90;;;;;;4972503;28;20057;-71
2022/01/11 05:50:06;;;;;;;13.27;2.83;;;-2.50;99.90;;;;;;4968468;28;20068;-73
2022/01/11 05:52:34;;;;;;;12.77;3.78;;;-2.60;99.90;;;;;;4985038;28;20153;-73
2022/01/11 05:55:03;;;;;;;11.93;3.47;;;-2.70;99.90;;;;;;4970084;28;20069;-73
2022/01/11 05:57:30;;;;;;;8.80;3.58;;;-2.80;99.90;;;;;;4985764;28;20062;-73
2022/01/11 05:59:57;;;;;;;11.50;3.60;;;-2.70;99.90;;;;;;4973595;28;20042;-73
2022/01/11 06:02:24;;;;;;;14.13;3.92;;;-2.70;99.90;;;;;;4959796;28;20082;-72
2022/01/11 06:04:51;;;;;;;15.13;3.63;;;-2.90;99.90;;;;;;4965917;28;20130;-73
2022/01/11 06:07:18;;;;;;;12.20;3.50;;;-3.00;99.90;;;;;;4970344;28;20133;-73
2022/01/11 06:09:45;;;;;;;8.85;3.78;;;-2.80;99.90;;;;;;4972477;28;20054;-73
2022/01/11 06:12:12;;;;;;;14.43;3.67;;;-2.70;99.90;;;;;;4971873;28;20117;-73
2022/01/11 06:14:39;;;;;;;12.23;3.58;;;-2.80;99.90;;;;;;4973543;28;20990;-73
2022/01/11 06:17:06;;;;;;;9.80;3.25;;;-2.80;99.90;;;;;;4983916;28;20054;-73
2022/01/11 06:19:34;;;;;;;8.63;3.50;;;-2.80;99.90;;;;;;4983026;28;20054;-73
2022/01/11 06:22:05;;;;;;;19.48;3.70;;;-2.90;99.90;;;;;;4990336;28;20584;-73
2022/01/11 06:24:32;;;;;;;7.50;3.92;;;-2.80;99.90;;;;;;4956540;28;20281;-73
2022/01/11 06:26:59;;;;;;;9.52;3.47;;;-2.80;99.90;;;;;;5001352;23;20485;-79
2022/01/11 06:29:26;;;;;;;13.75;4.03;;;-2.90;99.90;;;;;;4996180;28;20057;-79
2022/01/11 06:31:53;;;;;;;13.68;3.95;;;-3.00;99.90;;;;;;5000039;28;20161;-79
2022/01/11 06:34:20;;;;;;;15.13;3.92;;;-3.00;99.90;;;;;;5000108;28;20122;-81
2022/01/11 06:36:46;;;;;;;11.20;4.65;;;-2.70;99.90;;;;;;4985447;28;20153;-80
2022/01/11 06:39:13;;;;;;;6.75;3.20;;;-2.60;99.90;;;;;;4969241;28;20055;-80
2022/01/11 06:41:40;;;;;;;8.50;3.28;;;-2.50;99.90;;;;;;4967016;28;20273;-79
2022/01/11 06:44:11;;;;;;;9.82;3.58;;;-2.80;99.90;;;;;;4984007;28;20149;-79
2022/01/11 06:46:39;;;;;;;15.75;3.70;;;-2.90;99.90;;;;;;5003669;28;20462;-80
2022/01/11 06:49:07;;;;;;;9.15;3.72;;;-2.90;99.90;;;;;;4984974;28;20526;-80
2022/01/11 06:51:35;;;;;;;13.60;3.80;;;-3.00;99.90;;;;;;4967267;28;20057;-80
2022/01/11 06:54:01;;;;;;;15.27;3.47;;;-3.10;99.90;;;;;;4987201;28;20141;-80
2022/01/11 06:56:28;;;;;;;9.98;3.60;;;-3.10;99.90;;;;;;4967716;28;20054;-80
2022/01/11 06:59:02;;;;;;;8.38;3.00;;;-3.20;99.90;;;;;;4971397;28;20600;-81
2022/01/11 07:01:29;;;;;;;16.58;3.50;;;-3.20;99.90;;;;;;4981835;28;20099;-80
2022/01/11 07:04:01;;;;;;;11.98;3.75;;;-3.20;99.90;;;;;;4978392;28;20399;-79
2022/01/11 07:06:32;;;;;;;8.55;3.78;;;-3.20;99.90;;;;;;4978347;28;20053;-80
2022/01/11 07:09:01;;;;;;;6.57;3.45;;;-3.30;99.90;;;;;;4996648;28;20106;-80
2022/01/11 07:11:31;;;;;;;14.98;4.13;;;-3.30;99.90;;;;;;5024990;28;20034;-81
2022/01/11 07:14:03;;;;;;;13.93;4.10;;;-3.30;99.90;;;;;;5005459;28;20042;-80
2022/01/11 07:16:31;;;;;;;14.27;4.35;;;-3.40;99.90;;;;;;4986120;28;20133;-79
2022/01/11 07:19:00;;;;;;;10.00;3.85;;;-3.40;99.90;;;;;;5004127;28;20058;-79
2022/01/11 07:21:27;;;;;;;8.32;3.50;;;-3.30;99.90;;;;;;4983203;28;20474;-80
2022/01/11 07:23:54;;;;;;;16.02;4.50;;;-3.40;99.90;;;;;;4987351;28;20086;-80
2022/01/11 07:26:22;;;;;;;9.50;3.80;;;-3.40;99.90;;;;;;4986822;28;20053;-80
2022/01/11 07:28:49;;;;;;;15.43;5.00;;;-3.40;99.90;;;;;;4999134;28;20309;-80
2022/01/11 07:31:18;;;;;;;14.30;5.93;;;-3.40;99.90;;;;;;4988342;28;20077;-80
2022/01/11 07:33:50;;;;;;;10.02;4.50;;;-3.40;99.90;;;;;;4974872;28;20055;-80
2022/01/11 07:36:16;;;;;;;22.83;5.45;;;-3.30;99.90;;;;;;4970340;28;20116;-81
2022/01/11 07:38:47;;;;;;;10.75;4.30;;;-3.40;99.90;;;;;;4984479;28;20084;-80
2022/01/11 07:41:20;;;;;;;12.48;5.32;;;-3.40;99.90;;;;;;4985497;28;20662;-81
2022/01/11 07:44:01;;;;;;;9.93;4.95;;;-3.40;99.90;;;;;;4986115;28;20061;-81
2022/01/11 07:46:34;;;;;;;17.08;5.25;;;-3.30;99.90;;;;;;4984050;28;20052;-81
2022/01/11 07:49:05;;;;;;;17.70;5.95;;;-3.30;99.90;;;;;;4985608;28;20097;-82
2022/01/11 07:51:32;;;;;;;18.13;6.28;;;-3.30;99.90;;;;;;4968738;28;20255;-81
2022/01/11 07:54:03;;;;;;;9.77;5.75;;;-3.30;99.90;;;;;;4983786;28;20568;-81
2022/01/11 07:56:32;;;;;;;16.52;6.53;;;-3.40;99.90;;;;;;4967584;28;20562;-81
2022/01/11 07:58:59;;;;;;;22.13;6.50;;;-3.30;99.90;;;;;;4968982;28;20050;-80
2022/01/11 08:01:32;;;;;;;16.30;6.25;;;-3.10;99.90;;;;;;4980821;28;20054;-79
2022/01/11 08:04:01;;;;;;;13.98;6.43;;;-2.90;99.90;;;;;;4966733;28;20065;-80
2022/01/11 08:06:33;;;;;;;15.10;6.75;;;-3.00;99.90;;;;;;4997301;28;20054;-80
2022/01/11 08:09:07;;;;;;;18.15;8.27;;;-3.10;99.90;;;;;;5000487;28;20055;-80
2022/01/11 08:11:36;;;;;;;22.35;7.88;;;-2.80;99.90;;;;;;4984691;28;20113;-80
2022/01/11 08:14:04;;;;;;;19.85;7.95;;;-2.60;99.90;;;;;;4970172;28;20042;-80
2022/01/11 08:16:32;;;;;;;18.38;7.80;;;-2.50;99.90;;;;;;4984488;28;20117;-79
2022/01/11 08:19:05;;;;;;;20.45;7.47;;;-2.50;99.90;;;;;;4986624;28;20418;-80
2022/01/11 08:21:33;;;;;;;20.73;7.75;;;-2.50;99.90;;;;;;4987796;28;20506;-80
2022/01/11 08:24:00;;;;;;;16.27;5.88;;;-2.50;99.90;;;;;;4986468;28;20050;-80
2022/01/11 08:26:28;;;;;;;12.55;6.13;;;-2.50;99.90;;;;;;4996616;28;20058;-83
2022/01/11 08:28:55;;;;;;;15.57;6.68;;;-2.50;99.90;;;;;;5023540;28;20089;-82
2022/01/11 08:31:23;;;;;;;17.13;7.20;;;-2.60;99.90;;;;;;4987459;28;20038;-82
2022/01/11 08:33:53;;;;;;;13.77;6.95;;;-2.60;99.90;;;;;;4999334;28;20446;-80
2022/01/11 08:36:21;;;;;;;18.52;6.03;;;-2.40;99.90;;;;;;4982544;28;20042;-80
2022/01/11 08:38:47;;;;;;;18.80;6.38;;;-2.30;99.90;;;;;;4982740;28;20046;-81
2022/01/11 08:41:14;;;;;;;18.77;5.32;;;-2.20;99.90;;;;;;4969131;28;20414;-80
2022/01/11 08:43:41;;;;;;;13.68;5.60;;;-2.10;99.90;;;;;;5001483;28;20054;-80
2022/01/11 08:46:09;;;;;;;23.58;5.53;;;-2.00;99.90;;;;;;4970077;28;20383;-81
2022/01/11 08:48:50;;;;;;;18.67;5.40;;;-1.80;99.90;;;;;;4986164;28;20070;-81
2022/01/11 08:51:17;;;;;;;16.20;5.07;;;-1.60;99.90;;;;;;4986274;28;20417;-80
2022/01/11 08:53:44;;;;;;;9.57;5.28;;;-1.40;99.90;;;;;;4986930;28;20050;-78
2022/01/11 08:56:17;;;;;;;49.88;7.72;;;-1.30;99.90;;;;;;4960902;28;20233;-79
2022/01/11 08:58:45;;;;;;;24.45;9.63;;;-1.10;99.90;;;;;;4980501;28;20047;-79
2022/01/11 09:01:15;;;;;;;23.10;7.90;;;-1.10;99.90;;;;;;4984554;28;20070;-80
2022/01/11 09:03:43;;;;;;;18.88;7.72;;;-0.80;99.90;;;;;;4956958;28;20050;-79
2022/01/11 09:06:11;;;;;;;70.97;19.42;;;-0.50;99.90;;;;;;4970333;28;20149;-80
2022/01/11 09:08:39;;;;;;;28.17;8.52;;;-0.20;99.90;;;;;;4962797;28;20042;-79
2022/01/11 09:11:06;;;;;;;29.58;8.82;;;0.30;99.90;;;;;;4981651;28;20089;-79
2022/01/11 09:13:36;;;;;;;22.23;10.23;;;0.60;99.90;;;;;;4982700;28;20431;-80
2022/01/11 09:16:06;;;;;;;41.20;12.85;;;0.70;99.90;;;;;;4995518;28;20042;-75
2022/01/11 09:18:34;;;;;;;25.08;14.98;;;1.00;99.90;;;;;;4978951;28;20054;-76
2022/01/11 09:21:03;;;;;;;27.67;16.50;;;1.30;99.90;;;;;;4978344;28;20533;-76
2022/01/11 09:23:32;;;;;;;25.50;20.73;;;1.40;99.90;;;;;;4978532;28;20161;-75
2022/01/11 09:25:59;;;;;;;28.58;23.23;;;1.40;99.90;;;;;;4962469;28;20089;-75
2022/01/11 09:28:26;;;;;;;31.48;28.08;;;1.30;99.90;;;;;;4974411;28;20034;-75
2022/01/11 09:30:54;;;;;;;32.15;28.85;;;1.20;99.90;;;;;;4978609;28;20046;-75
2022/01/11 09:33:21;;;;;;;29.85;27.10;;;1.10;99.90;;;;;;4977343;28;20158;-75
2022/01/11 09:35:48;;;;;;;25.30;23.05;;;1.10;99.90;;;;;;4976551;28;20518;-74
2022/01/11 09:38:18;;;;;;;30.58;24.00;;;1.10;99.90;;;;;;4957848;28;20058;-75
2022/01/11 09:40:54;;;;;;;35.65;22.90;;;1.10;99.90;;;;;;4959443;28;20050;-74
2022/01/11 09:43:24;;;;;;;22.45;17.92;;;1.10;99.90;;;;;;4954773;28;20186;-75
2022/01/11 09:45:56;;;;;;;25.15;19.23;;;1.50;99.90;;;;;;4964605;28;20141;-75
2022/01/11 09:48:27;;;;;;;28.98;24.63;;;1.80;99.90;;;;;;4996064;28;20160;-75
2022/01/11 09:50:56;;;;;;;47.90;28.05;;;2.00;99.90;;;;;;4983089;28;20216;-75
2022/01/11 09:53:23;;;;;;;29.13;26.38;;;2.10;99.90;;;;;;4966735;28;20177;-74
2022/01/11 09:55:50;;;;;;;29.27;26.13;;;2.00;99.90;;;;;;4998795;28;20050;-75
2022/01/11 09:58:21;;;;;;;29.25;25.88;;;2.00;99.90;;;;;;4967373;28;20099;-75
2022/01/11 10:00:51;;;;;;;44.03;29.20;;;2.20;99.90;;;;;;4981240;28;20138;-75
2022/01/11 10:04:07;;;;;;;28.98;26.02;;;2.40;99.90;;;;;;4984240;28;20058;-74
2022/01/11 10:07:05;;;;;;;58.30;29.08;;;2.70;99.90;;;;;;4978865;28;20109;-74
2022/01/11 10:09:45;;;;;;;49.58;29.88;;;3.10;99.90;;;;;;4982622;28;20152;-75
2022/01/11 10:12:13;;;;;;;39.53;26.90;;;3.30;99.90;;;;;;4997851;28;20145;-74
2022/01/11 10:14:52;;;;;;;36.28;24.38;;;3.40;99.90;;;;;;4988827;28;20038;-74
2022/01/11 10:17:30;;;;;;;26.20;22.50;;;3.40;99.90;;;;;;4996614;28;20062;-74
2022/01/11 10:20:09;;;;;;;29.20;24.50;;;3.40;99.90;;;;;;4998921;28;20351;-74
2022/01/11 10:23:01;;;;;;;292.15;45.92;;;3.80;99.90;;;;;;4968117;28;20109;-74
2022/01/11 10:25:43;;;;;;;29.27;26.23;;;4.10;99.90;;;;;;4963565;28;20062;-76
2022/01/11 10:28:11;;;;;;;33.33;28.88;;;4.30;99.90;;;;;;4979473;28;20156;-75
2022/01/11 10:30:42;;;;;;;33.33;27.10;;;4.50;99.90;;;;;;4979477;28;20540;-75
2022/01/11 10:33:10;;;;;;;34.88;31.25;;;4.50;99.90;;;;;;4967883;28;20468;-75
2022/01/11 10:35:44;;;;;;;27.52;23.75;;;4.80;99.90;;;;;;4946238;28;20074;-75
2022/01/11 10:38:39;;;;;;;26.17;23.58;;;4.90;99.90;;;;;;4969662;28;20532;-74
2022/01/11 10:41:42;;;;;;;25.80;21.77;;;5.00;99.90;;;;;;4981850;28;20408;-75
2022/01/11 10:44:12;;;;;;;23.20;20.98;;;5.10;99.90;;;;;;4982423;28;20454;-75
2022/01/11 10:46:43;;;;;;;21.15;19.30;;;5.20;99.90;;;;;;4982652;28;20054;-74
2022/01/11 10:49:31;;;;;;;26.75;19.42;;;5.20;99.90;;;;;;4998114;28;20116;-74
2022/01/11 10:52:20;;;;;;;22.25;19.90;;;5.30;99.90;;;;;;4980718;28;20057;-74
2022/01/11 10:54:55;;;;;;;22.75;20.73;;;5.40;99.90;;;;;;4981819;28;20126;-74
2022/01/11 10:57:27;;;;;;;21.17;19.17;;;5.50;99.90;;;;;;4981572;28;20541;-74
2022/01/11 11:00:34;;;;;;;21.30;19.38;;;5.60;99.90;;;;;;4982862;28;20129;-74
2022/01/11 11:03:26;;;;;;;23.95;19.77;;;5.50;99.90;;;;;;4900626;29;20113;-74
2022/01/11 11:06:10;;;;;;;21.52;19.25;;;5.50;99.90;;;;;;4888134;29;20051;-74
2022/01/11 11:08:44;;;;;;;21.25;19.50;;;5.60;99.90;;;;;;4945804;28;20043;-74
2022/01/11 11:11:23;;;;;;;22.38;19.17;;;5.70;99.90;;;;;;4982104;28;20534;-74
2022/01/11 11:14:10;;;;;;;25.13;22.42;;;5.90;99.90;;;;;;4985180;28;20167;-75
2022/01/11 11:16:42;;;;;;;30.42;25.27;;;6.20;99.90;;;;;;4965126;28;20534;-74
2022/01/11 11:19:11;;;;;;;27.98;24.35;;;6.30;99.90;;;;;;4998325;28;20526;-74
2022/01/11 11:21:44;;;;;;;28.58;25.52;;;6.20;99.90;;;;;;4980971;28;20125;-74
2022/01/11 11:24:14;;;;;;;28.83;25.73;;;6.20;99.90;;;;;;4984491;28;20052;-74
2022/01/11 11:26:49;;;;;;;27.70;25.17;;;6.50;99.90;;;;;;4980303;28;20073;-73
2022/01/11 11:29:19;;;;;;;25.80;23.23;;;6.60;99.90;;;;;;4983149;28;20081;-74
2022/01/11 11:32:06;;;;;;;27.30;24.70;;;6.60;99.90;;;;;;4974457;28;20137;-74
2022/01/11 11:34:34;;;;;;;21.98;20.00;;;6.60;99.90;;;;;;4966088;28;20086;-74
2022/01/11 11:37:05;;;;;;;33.67;30.27;;;6.60;99.90;;;;;;4962417;28;20199;-75
2022/01/11 11:39:33;;;;;;;32.40;24.35;;;6.70;99.90;;;;;;4963507;28;20507;-75
2022/01/11 11:42:01;;;;;;;23.52;21.35;;;6.80;99.90;;;;;;4963387;28;20078;-74
2022/01/11 11:44:36;;;;;;;23.33;21.30;;;6.90;99.90;;;;;;4969373;28;20054;-74
2022/01/11 11:47:06;;;;;;;26.10;23.77;;;7.00;99.90;;;;;;4983596;28;20579;-74
2022/01/11 11:49:51;;;;;;;28.63;26.83;;;6.90;99.90;;;;;;4982940;28;20066;-74
2022/01/11 11:52:19;;;;;;;30.83;28.88;;;6.70;99.90;;;;;;4997194;28;20050;-74
2022/01/11 11:55:03;;;;;;;27.25;25.60;;;6.50;99.90;;;;;;4981565;28;20054;-74
2022/01/11 11:57:33;;;;;;;25.00;23.00;;;6.40;99.90;;;;;;4980898;28;20101;-74
2022/01/11 12:00:03;;;;;;;25.67;23.60;;;6.50;99.90;;;;;;4980101;28;20050;-73
2022/01/11 12:02:43;;;;;;;24.75;22.73;;;6.50;99.90;;;;;;4979658;28;20141;-73
2022/01/11 12:05:44;;;;;;;22.85;21.10;;;6.40;99.90;;;;;;4964404;28;20400;-74
2022/01/11 12:08:34;;;;;;;25.75;24.23;;;6.40;99.90;;;;;;4998205;28;20454;-74
2022/01/11 12:11:18;;;;;;;25.10;22.75;;;6.40;99.90;;;;;;4980887;28;20053;-74
2022/01/11 12:13:49;;;;;;;24.48;22.92;;;6.30;99.90;;;;;;4982548;28;20061;-74
2022/01/11 12:16:26;;;;;;;24.30;22.65;;;6.30;99.90;;;;;;4964887;28;20047;-74
2022/01/11 12:19:02;;;;;;;25.15;23.55;;;6.40;99.90;;;;;;4981276;28;20086;-74
2022/01/11 12:21:41;;;;;;;25.13;23.40;;;6.40;99.90;;;;;;4979722;28;20161;-73
2022/01/11 12:24:09;;;;;;;23.70;21.67;;;6.30;99.90;;;;;;4977398;28;20058;-74
2022/01/11 12:26:37;;;;;;;22.52;20.75;;;6.40;99.90;;;;;;4961594;28;20046;-74
2022/01/11 12:29:08;;;;;;;21.30;19.48;;;6.50;99.90;;;;;;4997616;23;20058;-69
2022/01/11 12:31:58;;;;;;;21.65;19.77;;;6.50;99.90;;;;;;4968932;28;20058;-69
2022/01/11 12:34:48;;;;;;;21.95;20.20;;;6.50;99.90;;;;;;4948287;28;20086;-69
2022/01/11 12:37:38;;;;;;;21.05;19.38;;;6.40;99.90;;;;;;4982896;28;20053;-69
2022/01/11 12:40:25;;;;;;;21.48;20.02;;;6.50;99.90;;;;;;4972425;28;20046;-71
2022/01/11 12:42:55;;;;;;;22.25;20.65;;;6.50;99.90;;;;;;4969968;28;20070;-69
2022/01/11 12:46:07;;;;;;;21.73;20.17;;;6.50;99.90;;;;;;4984084;28;20053;-68
2022/01/11 12:48:44;;;;;;;22.23;20.45;;;6.50;99.90;;;;;;4950940;28;20485;-70
2022/01/11 12:51:22;;;;;;;23.40;21.85;;;6.40;99.90;;;;;;4949584;28;20267;-70
2022/01/11 12:53:51;;;;;;;23.55;21.83;;;6.50;99.90;;;;;;4949607;28;20444;-70
2022/01/11 12:56:18;;;;;;;23.15;21.30;;;6.50;99.90;;;;;;4949997;28;20117;-69
2022/01/11 12:58:46;;;;;;;22.35;20.05;;;6.60;99.90;;;;;;4958118;28;20055;-69